createdAt,value
2019-02-18T00:00:58.585Z,5.37
2019-02-18T00:01:58.618Z,5.49
2019-02-18T00:02:58.528Z,5.35
2019-02-18T00:03:58.531Z,5.33
2019-02-18T00:04:58.469Z,5.32
2019-02-18T00:05:58.553Z,5.35
2019-02-18T00:06:58.415Z,5.23
2019-02-18T00:07:58.457Z,5.22
2019-02-18T00:08:58.352Z,5.20
2019-02-18T00:09:58.361Z,5.23
2019-02-18T00:10:58.301Z,5.19
2019-02-18T00:11:58.269Z,5.17
2019-02-18T00:12:58.236Z,5.22
2019-02-18T00:13:59.315Z,5.15
2019-02-18T00:14:58.172Z,5.08
2019-02-18T00:15:58.203Z,5.15
2019-02-18T00:16:59.702Z,5.14
2019-02-18T00:17:59.698Z,5.15
2019-02-18T00:18:58.168Z,5.14
2019-02-18T00:19:58.041Z,5.08
2019-02-18T00:20:58.071Z,5.09
2019-02-18T00:21:57.976Z,5.05
2019-02-18T00:22:57.983Z,5.05
2019-02-18T00:23:57.922Z,5.09
2019-02-18T00:24:58.000Z,5.02
2019-02-18T00:25:57.860Z,5.14
2019-02-18T00:26:57.907Z,4.94
2019-02-18T00:27:57.802Z,5.05
2019-02-18T00:28:57.822Z,5.12
2019-02-18T00:29:57.749Z,4.93
2019-02-18T00:30:57.735Z,5.01
2019-02-18T00:31:57.684Z,4.96
2019-02-18T00:32:57.751Z,4.97
2019-02-18T00:33:57.629Z,5.01
2019-02-18T00:34:57.664Z,5.01
2019-02-18T00:35:57.567Z,4.94
2019-02-18T00:36:57.571Z,5.08
2019-02-18T00:37:57.510Z,5.01
2019-02-18T00:38:57.584Z,5.01
2019-02-18T00:39:57.456Z,5.06
2019-02-18T00:40:57.509Z,5.05
2019-02-18T00:41:57.398Z,5.04
2019-02-18T00:42:57.407Z,4.94
2019-02-18T00:43:57.336Z,5.05
2019-02-18T00:44:57.423Z,4.91
2019-02-18T00:45:57.284Z,4.90
2019-02-18T00:46:57.345Z,4.93
2019-02-18T00:47:57.222Z,4.88
2019-02-18T00:48:57.241Z,4.87
2019-02-18T00:49:57.167Z,4.83
2019-02-18T00:50:57.155Z,4.86
2019-02-18T00:51:57.100Z,4.69
2019-02-18T00:52:57.169Z,4.77
2019-02-18T00:53:57.047Z,4.62
2019-02-18T00:54:57.083Z,4.68
2019-02-18T00:55:57.000Z,4.51
2019-02-18T00:56:56.999Z,4.53
2019-02-18T00:57:56.937Z,4.49
2019-02-18T00:58:57.012Z,4.51
2019-02-18T00:59:56.873Z,4.42
2019-02-18T01:00:56.927Z,4.42
2019-02-18T01:01:56.823Z,4.38
2019-02-18T01:02:56.827Z,4.28
2019-02-18T01:03:56.757Z,4.28
2019-02-18T01:04:56.845Z,4.32
2019-02-18T01:05:56.700Z,4.35
2019-02-18T01:06:56.758Z,4.21
2019-02-18T01:07:56.647Z,4.24
2019-02-18T01:08:56.717Z,4.26
2019-02-18T01:09:56.605Z,4.21
2019-02-18T01:10:56.577Z,4.04
2019-02-18T01:11:56.525Z,4.13
2019-02-18T01:12:56.596Z,4.11
2019-02-18T01:13:56.460Z,4.11
2019-02-18T01:14:56.521Z,4.07
2019-02-18T01:15:56.407Z,4.08
2019-02-18T01:16:56.411Z,4.08
2019-02-18T01:17:56.352Z,3.92
2019-02-18T01:18:56.431Z,3.98
2019-02-18T01:19:56.292Z,4.00
2019-02-18T01:20:56.334Z,3.92
2019-02-18T01:21:56.237Z,3.90
2019-02-18T01:22:56.248Z,3.84
2019-02-18T01:23:56.181Z,3.99
2019-02-18T01:25:17.268Z,3.92
2019-02-18T01:25:56.115Z,3.98
2019-02-18T01:26:56.101Z,3.88
2019-02-18T01:27:56.070Z,3.84
2019-02-18T01:28:56.029Z,3.82
2019-02-18T01:30:12.803Z,3.78
2019-02-18T01:30:55.968Z,3.80
2019-02-18T01:31:58.051Z,3.82
2019-02-18T01:32:55.910Z,3.74
2019-02-18T01:33:55.911Z,3.71
2019-02-18T01:34:55.856Z,3.67
2019-02-18T01:35:55.983Z,3.67
2019-02-18T01:36:55.795Z,3.71
2019-02-18T01:37:55.766Z,3.77
2019-02-18T01:38:55.730Z,3.54
2019-02-18T01:39:55.712Z,3.62
2019-02-18T01:40:55.678Z,3.59
2019-02-18T01:41:56.674Z,3.54
2019-02-18T01:42:55.618Z,3.54
2019-02-18T01:43:55.665Z,3.50
2019-02-18T01:44:55.564Z,3.49
2019-02-18T01:45:55.529Z,3.49
2019-02-18T01:46:55.503Z,3.44
2019-02-18T01:47:55.472Z,3.37
2019-02-18T01:48:55.442Z,3.45
2019-02-18T01:49:55.419Z,3.35
2019-02-18T01:50:55.409Z,3.37
2019-02-18T01:51:55.354Z,3.30
2019-02-18T01:52:55.422Z,3.35
2019-02-18T01:53:55.346Z,3.30
2019-02-18T01:54:55.343Z,3.31
2019-02-18T01:55:55.240Z,3.42
2019-02-18T01:56:55.236Z,3.37
2019-02-18T01:57:55.179Z,3.37
2019-02-18T01:58:55.268Z,3.31
2019-02-18T01:59:55.120Z,3.33
2019-02-18T02:00:55.159Z,3.19
2019-02-18T02:01:55.060Z,3.19
2019-02-18T02:02:55.052Z,3.13
2019-02-18T02:03:55.003Z,3.15
2019-02-18T02:04:55.061Z,3.16
2019-02-18T02:05:54.966Z,3.08
2019-02-18T02:06:54.969Z,3.10
2019-02-18T02:07:56.608Z,2.98
2019-02-18T02:08:54.879Z,3.02
2019-02-18T02:09:54.831Z,3.01
2019-02-18T02:10:54.897Z,3.01
2019-02-18T02:11:54.772Z,2.92
2019-02-18T02:12:54.809Z,2.94
2019-02-18T02:13:54.714Z,3.01
2019-02-18T02:14:54.717Z,2.84
2019-02-18T02:15:54.655Z,2.79
2019-02-18T02:16:54.731Z,2.83
2019-02-18T02:17:54.596Z,2.74
2019-02-18T02:18:54.645Z,2.83
2019-02-18T02:19:54.530Z,2.79
2019-02-18T02:20:54.566Z,2.81
2019-02-18T02:21:54.479Z,2.71
2019-02-18T02:22:55.490Z,2.81
2019-02-18T02:23:54.420Z,2.77
2019-02-18T02:24:54.474Z,2.65
2019-02-18T02:25:54.363Z,2.74
2019-02-18T02:26:54.402Z,2.71
2019-02-18T02:27:54.310Z,2.71
2019-02-18T02:28:54.302Z,2.62
2019-02-18T02:29:54.263Z,2.71
2019-02-18T02:30:54.314Z,2.59
2019-02-18T02:31:54.179Z,2.66
2019-02-18T02:32:54.231Z,2.66
2019-02-18T02:33:54.131Z,2.58
2019-02-18T02:34:54.161Z,2.68
2019-02-18T02:35:54.064Z,2.63
2019-02-18T02:36:54.065Z,2.66
2019-02-18T02:37:54.027Z,2.65
2019-02-18T02:38:54.086Z,2.61
2019-02-18T02:39:53.950Z,2.62
2019-02-18T02:40:53.995Z,2.58
2019-02-18T02:41:53.891Z,2.59
2019-02-18T02:42:53.911Z,2.58
2019-02-18T02:43:53.855Z,2.58
2019-02-18T02:44:53.907Z,2.62
2019-02-18T02:45:53.788Z,2.59
2019-02-18T02:46:53.827Z,2.56
2019-02-18T02:47:53.715Z,2.44
2019-02-18T02:48:53.743Z,2.45
2019-02-18T02:49:53.661Z,2.58
2019-02-18T02:50:53.654Z,2.55
2019-02-18T02:51:53.590Z,2.58
2019-02-18T02:52:53.671Z,2.48
2019-02-18T02:53:53.533Z,2.50
2019-02-18T02:54:53.559Z,2.45
2019-02-18T02:55:53.499Z,2.47
2019-02-18T02:56:53.472Z,2.45
2019-02-18T02:57:53.427Z,2.44
2019-02-18T02:58:53.484Z,2.38
2019-02-18T02:59:53.352Z,2.37
2019-02-18T03:00:53.397Z,2.40
2019-02-18T03:01:53.301Z,2.38
2019-02-18T03:02:53.309Z,2.36
2019-02-18T03:03:53.246Z,2.27
2019-02-18T03:04:53.248Z,2.33
2019-02-18T03:05:53.194Z,2.30
2019-02-18T03:06:53.234Z,2.33
2019-02-18T03:07:53.143Z,2.22
2019-02-18T03:08:53.144Z,2.27
2019-02-18T03:09:53.062Z,2.29
2019-02-18T03:10:53.069Z,2.22
2019-02-18T03:11:53.008Z,2.19
2019-02-18T03:12:52.987Z,2.23
2019-02-18T03:13:52.945Z,2.12
2019-02-18T03:14:52.989Z,2.09
2019-02-18T03:15:52.900Z,2.19
2019-02-18T03:16:52.896Z,2.14
2019-02-18T03:17:52.836Z,2.14
2019-02-18T03:18:52.920Z,2.04
2019-02-18T03:19:52.770Z,2.18
2019-02-18T03:20:52.811Z,2.01
2019-02-18T03:21:52.721Z,2.12
2019-02-18T03:22:52.753Z,2.12
2019-02-18T03:23:52.663Z,1.98
2019-02-18T03:24:52.744Z,1.98
2019-02-18T03:25:52.595Z,2.09
2019-02-18T03:26:52.642Z,2.01
2019-02-18T03:27:52.528Z,2.02
2019-02-18T03:28:52.513Z,2.12
2019-02-18T03:29:52.479Z,2.01
2019-02-18T03:30:52.478Z,2.02
2019-02-18T03:31:52.423Z,2.04
2019-02-18T03:32:52.478Z,2.00
2019-02-18T03:33:52.369Z,2.00
2019-02-18T03:34:52.386Z,1.92
2019-02-18T03:35:52.303Z,1.93
2019-02-18T03:36:52.300Z,1.85
2019-02-18T03:37:52.243Z,1.88
2019-02-18T03:38:52.325Z,1.89
2019-02-18T03:39:52.200Z,1.89
2019-02-18T03:41:02.425Z,1.90
2019-02-18T03:41:52.125Z,1.86
2019-02-18T03:42:52.146Z,1.89
2019-02-18T03:43:52.064Z,1.89
2019-02-18T03:44:52.091Z,1.77
2019-02-18T03:45:52.018Z,1.82
2019-02-18T03:46:52.082Z,1.82
2019-02-18T03:47:51.958Z,1.83
2019-02-18T03:48:51.998Z,1.77
2019-02-18T03:49:53.750Z,1.81
2019-02-18T03:51:06.831Z,1.75
2019-02-18T03:51:51.839Z,1.79
2019-02-18T03:52:51.917Z,1.72
2019-02-18T03:53:51.780Z,1.71
2019-02-18T03:54:51.750Z,1.72
2019-02-18T03:56:00.372Z,1.67
2019-02-18T03:56:51.682Z,1.71
2019-02-18T03:57:59.295Z,1.74
2019-02-18T03:58:51.623Z,1.71
2019-02-18T03:59:51.637Z,1.64
2019-02-18T04:00:51.571Z,1.74
2019-02-18T04:02:51.506Z,1.67
2019-02-18T04:04:00.369Z,1.77
2019-02-18T04:04:51.442Z,1.74
2019-02-18T04:06:14.508Z,1.72
2019-02-18T04:06:51.381Z,1.70
2019-02-18T04:08:00.294Z,1.64
2019-02-18T04:08:51.385Z,1.64
2019-02-18T04:10:07.274Z,1.65
2019-02-18T04:10:51.287Z,1.60
2019-02-18T04:11:52.333Z,1.68
2019-02-18T04:12:51.205Z,1.64
2019-02-18T04:13:52.254Z,1.61
2019-02-18T04:14:51.172Z,1.61
2019-02-18T04:15:51.204Z,1.54
2019-02-18T04:16:51.087Z,1.54
2019-02-18T04:17:51.068Z,1.49
2019-02-18T04:18:51.036Z,1.49
2019-02-18T04:19:51.010Z,1.47
2019-02-18T04:20:50.973Z,1.54
2019-02-18T04:21:50.940Z,1.47
2019-02-18T04:22:50.917Z,1.50
2019-02-18T04:23:50.876Z,1.50
2019-02-18T04:24:50.856Z,1.49
2019-02-18T04:25:50.827Z,1.46
2019-02-18T04:26:50.794Z,1.46
2019-02-18T04:27:50.769Z,1.50
2019-02-18T04:28:50.745Z,1.36
2019-02-18T04:29:50.709Z,1.34
2019-02-18T04:30:50.727Z,1.36
2019-02-18T04:31:50.647Z,1.46
2019-02-18T04:32:50.613Z,1.32
2019-02-18T04:33:50.600Z,1.42
2019-02-18T04:34:50.558Z,1.36
2019-02-18T04:35:50.528Z,1.42
2019-02-18T04:36:50.499Z,1.44
2019-02-18T04:37:50.466Z,1.38
2019-02-18T04:38:54.075Z,1.36
2019-02-18T04:39:50.407Z,1.36
2019-02-18T04:40:50.378Z,1.35
2019-02-18T04:41:50.364Z,1.28
2019-02-18T04:42:50.317Z,1.29
2019-02-18T04:43:50.281Z,1.31
2019-02-18T04:44:50.263Z,1.34
2019-02-18T04:45:50.232Z,1.24
2019-02-18T04:46:50.204Z,1.34
2019-02-18T04:47:50.168Z,1.31
2019-02-18T04:48:50.146Z,1.31
2019-02-18T04:49:50.192Z,1.36
2019-02-18T04:50:50.084Z,1.26
2019-02-18T04:51:50.045Z,1.28
2019-02-18T04:52:50.027Z,1.26
2019-02-18T04:53:49.996Z,1.25
2019-02-18T04:54:49.960Z,1.29
2019-02-18T04:55:49.958Z,1.34
2019-02-18T04:56:49.905Z,1.32
2019-02-18T04:57:49.889Z,1.26
2019-02-18T04:58:49.961Z,1.31
2019-02-18T04:59:49.814Z,1.26
2019-02-18T05:00:49.783Z,1.21
2019-02-18T05:01:49.760Z,1.29
2019-02-18T05:02:49.724Z,1.21
2019-02-18T05:03:49.698Z,1.21
2019-02-18T05:04:49.670Z,1.21
2019-02-18T05:05:49.635Z,1.18
2019-02-18T05:06:49.606Z,1.29
2019-02-18T05:07:49.600Z,1.31
2019-02-18T05:08:49.558Z,1.24
2019-02-18T05:09:49.519Z,1.28
2019-02-18T05:10:49.488Z,1.16
2019-02-18T05:11:49.464Z,1.34
2019-02-18T05:12:49.422Z,1.26
2019-02-18T05:13:49.401Z,1.18
2019-02-18T05:14:49.372Z,1.25
2019-02-18T05:15:49.338Z,1.20
2019-02-18T05:16:49.308Z,1.28
2019-02-18T05:17:49.274Z,1.20
2019-02-18T05:18:49.250Z,1.20
2019-02-18T05:19:49.223Z,1.25
2019-02-18T05:20:49.189Z,1.20
2019-02-18T05:21:49.164Z,1.21
2019-02-18T05:22:49.130Z,1.18
2019-02-18T05:23:49.098Z,1.11
2019-02-18T05:24:49.070Z,1.18
2019-02-18T05:25:49.039Z,1.14
2019-02-18T05:26:49.011Z,1.04
2019-02-18T05:27:48.991Z,1.04
2019-02-18T05:28:49.065Z,1.04
2019-02-18T05:29:48.917Z,1.04
2019-02-18T05:30:48.958Z,1.11
2019-02-18T05:31:48.979Z,0.98
2019-02-18T05:32:48.868Z,0.98
2019-02-18T05:33:48.804Z,1.06
2019-02-18T05:34:48.882Z,1.08
2019-02-18T05:35:50.275Z,1.06
2019-02-18T05:36:48.715Z,0.98
2019-02-18T05:37:48.779Z,0.96
2019-02-18T05:38:48.652Z,1.02
2019-02-18T05:39:48.625Z,0.98
2019-02-18T05:40:48.600Z,0.93
2019-02-18T05:41:48.567Z,0.90
2019-02-18T05:42:48.535Z,0.99
2019-02-18T05:43:48.511Z,1.02
2019-02-18T05:44:48.472Z,0.96
2019-02-18T05:45:48.484Z,0.95
2019-02-18T05:46:48.420Z,0.99
2019-02-18T05:47:48.388Z,1.02
2019-02-18T05:48:48.350Z,1.04
2019-02-18T05:49:48.337Z,1.00
2019-02-18T05:50:48.353Z,1.04
2019-02-18T05:51:48.264Z,1.07
2019-02-18T05:52:48.254Z,1.02
2019-02-18T05:53:48.205Z,1.00
2019-02-18T05:54:48.182Z,0.96
2019-02-18T05:55:48.153Z,1.04
2019-02-18T05:56:48.120Z,0.99
2019-02-18T05:57:48.084Z,0.99
2019-02-18T05:58:48.099Z,1.04
2019-02-18T05:59:48.029Z,0.95
2019-02-18T06:00:48.113Z,1.02
2019-02-18T06:01:47.964Z,0.98
2019-02-18T06:02:48.017Z,1.02
2019-02-18T06:03:47.904Z,0.98
2019-02-18T06:05:47.850Z,1.02
2019-02-18T06:06:47.887Z,0.98
2019-02-18T06:07:47.786Z,0.80
2019-02-18T06:09:47.726Z,0.82
2019-02-18T06:10:55.393Z,0.86
2019-02-18T06:11:47.740Z,0.86
2019-02-18T06:13:47.626Z,0.90
2019-02-18T06:14:47.573Z,0.78
2019-02-18T06:15:47.556Z,0.89
2019-02-18T06:17:47.486Z,0.99
2019-02-18T06:18:47.563Z,0.90
2019-02-18T06:19:47.425Z,0.92
2019-02-18T06:20:48.520Z,0.90
2019-02-18T06:21:47.375Z,0.84
2019-02-18T06:22:54.348Z,0.84
2019-02-18T06:23:47.608Z,0.86
2019-02-18T06:24:49.341Z,0.80
2019-02-18T06:25:47.251Z,0.95
2019-02-18T06:27:02.871Z,0.80
2019-02-18T06:27:47.197Z,0.78
2019-02-18T06:28:53.878Z,0.80
2019-02-18T06:29:47.128Z,0.84
2019-02-18T06:30:48.156Z,0.80
2019-02-18T06:31:47.068Z,0.75
2019-02-18T06:33:01.893Z,0.75
2019-02-18T06:33:47.009Z,0.78
2019-02-18T06:34:49.048Z,0.80
2019-02-18T06:35:46.945Z,0.78
2019-02-18T06:37:03.867Z,0.77
2019-02-18T06:37:46.885Z,0.80
2019-02-18T06:39:14.836Z,0.75
2019-02-18T06:39:46.829Z,0.77
2019-02-18T06:40:46.799Z,0.74
2019-02-18T06:41:47.789Z,0.80
2019-02-18T06:42:46.758Z,0.82
2019-02-18T06:43:48.722Z,0.89
2019-02-18T06:44:46.676Z,0.80
2019-02-18T06:45:48.807Z,0.88
2019-02-18T06:46:46.622Z,0.86
2019-02-18T06:47:46.647Z,0.80
2019-02-18T06:48:46.562Z,0.89
2019-02-18T06:49:46.558Z,0.95
2019-02-18T06:50:46.493Z,0.89
2019-02-18T06:51:48.510Z,0.82
2019-02-18T06:52:46.439Z,0.86
2019-02-18T06:53:46.475Z,0.86
2019-02-18T06:54:46.379Z,0.95
2019-02-18T06:55:47.409Z,0.99
2019-02-18T06:56:46.318Z,0.93
2019-02-18T06:57:46.399Z,0.95
2019-02-18T06:58:46.262Z,1.02
2019-02-18T06:59:46.316Z,0.92
2019-02-18T07:00:46.221Z,1.00
2019-02-18T07:01:46.223Z,0.92
2019-02-18T07:02:46.132Z,0.95
2019-02-18T07:03:46.105Z,0.92
2019-02-18T07:04:46.082Z,0.95
2019-02-18T07:05:46.056Z,0.98
2019-02-18T07:06:46.022Z,1.00
2019-02-18T07:07:45.986Z,1.02
2019-02-18T07:08:46.788Z,0.98
2019-02-18T07:09:51.331Z,1.08
2019-02-18T07:10:45.985Z,0.95
2019-02-18T07:11:45.864Z,1.11
2019-02-18T07:12:45.834Z,1.04
2019-02-18T07:13:45.801Z,1.13
2019-02-18T07:14:45.783Z,1.08
2019-02-18T07:15:45.756Z,1.04
2019-02-18T07:16:45.809Z,1.11
2019-02-18T07:17:45.828Z,1.13
2019-02-18T07:18:45.653Z,1.10
2019-02-18T07:19:45.628Z,1.14
2019-02-18T07:20:45.602Z,1.18
2019-02-18T07:21:46.578Z,1.13
2019-02-18T07:22:45.530Z,1.20
2019-02-18T07:23:45.504Z,1.32
2019-02-18T07:24:46.488Z,1.32
2019-02-18T07:25:45.450Z,1.18
2019-02-18T07:26:45.485Z,1.26
2019-02-18T07:27:45.386Z,1.20
2019-02-18T07:28:45.407Z,1.24
2019-02-18T07:29:45.322Z,1.24
2019-02-18T07:30:45.314Z,1.31
2019-02-18T07:31:45.262Z,1.24
2019-02-18T07:32:46.333Z,1.25
2019-02-18T07:33:45.209Z,1.24
2019-02-18T07:34:45.260Z,1.32
2019-02-18T07:35:45.143Z,1.29
2019-02-18T07:36:45.140Z,1.32
2019-02-18T07:37:45.119Z,1.31
2019-02-18T07:38:46.062Z,1.44
2019-02-18T07:39:45.024Z,1.49
2019-02-18T07:40:44.986Z,1.35
2019-02-18T07:41:44.969Z,1.38
2019-02-18T07:42:44.973Z,1.36
2019-02-18T07:43:44.897Z,1.49
2019-02-18T07:44:44.879Z,1.43
2019-02-18T07:45:44.882Z,1.53
2019-02-18T07:46:44.900Z,1.60
2019-02-18T07:47:44.793Z,1.57
2019-02-18T07:48:44.812Z,1.60
2019-02-18T07:49:44.717Z,1.56
2019-02-18T07:50:44.702Z,1.65
2019-02-18T07:51:44.656Z,1.67
2019-02-18T07:52:44.633Z,1.74
2019-02-18T07:53:44.628Z,1.75
2019-02-18T07:54:44.566Z,1.72
2019-02-18T07:55:44.535Z,1.79
2019-02-18T07:56:44.505Z,1.88
2019-02-18T07:57:44.753Z,1.83
2019-02-18T07:58:44.450Z,1.83
2019-02-18T07:59:44.504Z,1.90
2019-02-18T08:00:44.383Z,1.89
2019-02-18T08:01:45.408Z,1.98
2019-02-18T08:02:44.350Z,2.04
2019-02-18T08:03:44.300Z,2.01
2019-02-18T08:04:44.317Z,2.12
2019-02-18T08:05:44.249Z,2.19
2019-02-18T08:06:44.312Z,2.19
2019-02-18T08:07:44.231Z,2.27
2019-02-18T08:08:44.218Z,2.25
2019-02-18T08:09:44.111Z,2.32
2019-02-18T08:10:44.119Z,2.38
2019-02-18T08:11:44.051Z,2.51
2019-02-18T08:12:44.030Z,2.56
2019-02-18T08:13:44.004Z,2.68
2019-02-18T08:14:43.970Z,2.56
2019-02-18T08:15:43.931Z,2.63
2019-02-18T08:16:43.907Z,2.68
2019-02-18T08:17:44.165Z,2.79
2019-02-18T08:18:43.879Z,2.92
2019-02-18T08:19:43.810Z,2.92
2019-02-18T08:20:43.784Z,2.95
2019-02-18T08:21:43.754Z,2.99
2019-02-18T08:22:43.719Z,3.02
2019-02-18T08:23:43.712Z,3.15
2019-02-18T08:24:43.675Z,3.28
2019-02-18T08:25:43.635Z,3.30
2019-02-18T08:26:44.262Z,3.42
2019-02-18T08:27:43.580Z,3.52
2019-02-18T08:28:43.538Z,3.60
2019-02-18T08:29:43.511Z,3.56
2019-02-18T08:30:43.482Z,3.74
2019-02-18T08:31:43.451Z,3.75
2019-02-18T08:32:43.425Z,3.84
2019-02-18T08:33:43.398Z,3.95
2019-02-18T08:34:43.367Z,3.98
2019-02-18T08:35:43.332Z,4.17
2019-02-18T08:36:43.301Z,4.17
2019-02-18T08:37:43.268Z,4.28
2019-02-18T08:38:43.241Z,4.32
2019-02-18T08:39:43.214Z,4.46
2019-02-18T08:40:43.211Z,4.47
2019-02-18T08:41:43.150Z,4.50
2019-02-18T08:42:43.231Z,4.64
2019-02-18T08:43:43.095Z,4.72
2019-02-18T08:44:43.151Z,4.74
2019-02-18T08:45:43.044Z,4.87
2019-02-18T08:46:43.050Z,4.88
2019-02-18T08:47:42.968Z,4.97
2019-02-18T08:48:42.965Z,5.04
2019-02-18T08:49:42.926Z,5.04
2019-02-18T08:50:42.870Z,5.05
2019-02-18T08:51:42.857Z,5.02
2019-02-18T08:52:42.821Z,5.15
2019-02-18T08:53:42.785Z,5.19
2019-02-18T08:54:42.761Z,5.20
2019-02-18T08:55:42.722Z,5.33
2019-02-18T08:56:42.704Z,5.32
2019-02-18T08:57:42.675Z,5.37
2019-02-18T08:58:42.636Z,5.48
2019-02-18T08:59:42.603Z,5.52
2019-02-18T09:00:42.574Z,5.67
2019-02-18T09:01:42.548Z,5.67
2019-02-18T09:02:42.543Z,5.75
2019-02-18T09:03:44.318Z,5.74
2019-02-18T09:04:42.455Z,5.77
2019-02-18T09:05:42.440Z,5.84
2019-02-18T09:06:42.399Z,5.90
2019-02-18T09:07:42.381Z,6.05
2019-02-18T09:08:42.345Z,6.17
2019-02-18T09:09:42.332Z,6.28
2019-02-18T09:10:42.278Z,6.40
2019-02-18T09:11:42.262Z,6.53
2019-02-18T09:12:42.236Z,6.54
2019-02-18T09:13:42.183Z,6.55
2019-02-18T09:14:42.156Z,6.71
2019-02-18T09:15:42.120Z,6.73
2019-02-18T09:16:42.108Z,6.83
2019-02-18T09:17:42.074Z,6.87
2019-02-18T09:18:42.044Z,6.90
2019-02-18T09:19:42.016Z,6.94
2019-02-18T09:20:42.003Z,6.90
2019-02-18T09:21:41.973Z,7.07
2019-02-18T09:22:41.984Z,7.09
2019-02-18T09:23:41.915Z,7.14
2019-02-18T09:24:41.931Z,7.19
2019-02-18T09:25:43.493Z,7.24
2019-02-18T09:26:41.962Z,7.39
2019-02-18T09:27:41.793Z,7.50
2019-02-18T09:28:41.745Z,7.54
2019-02-18T09:29:41.725Z,7.69
2019-02-18T09:30:41.682Z,7.63
2019-02-18T09:31:42.931Z,7.79
2019-02-18T09:32:41.624Z,7.85
2019-02-18T09:33:41.607Z,7.92
2019-02-18T09:34:41.565Z,8.09
2019-02-18T09:35:41.556Z,8.28
2019-02-18T09:36:41.499Z,8.29
2019-02-18T09:37:41.501Z,8.50
2019-02-18T09:38:41.438Z,8.58
2019-02-18T09:39:41.412Z,8.63
2019-02-18T09:40:44.596Z,8.85
2019-02-18T09:41:41.357Z,9.00
2019-02-18T09:42:41.352Z,9.08
2019-02-18T09:43:41.284Z,9.23
2019-02-18T09:44:41.290Z,9.24
2019-02-18T09:45:41.244Z,9.40
2019-02-18T09:46:41.203Z,9.52
2019-02-18T09:47:41.233Z,9.63
2019-02-18T09:48:41.147Z,9.71
2019-02-18T09:49:41.134Z,9.75
2019-02-18T09:50:41.104Z,9.81
2019-02-18T09:51:41.055Z,9.93
2019-02-18T09:52:41.050Z,9.89
2019-02-18T09:53:40.990Z,10.02
2019-02-18T09:54:40.973Z,10.28
2019-02-18T09:55:40.936Z,10.42
2019-02-18T09:56:40.996Z,10.55
2019-02-18T09:57:40.931Z,10.65
2019-02-18T09:58:40.914Z,10.60
2019-02-18T09:59:40.819Z,10.66
2019-02-18T10:00:40.791Z,10.75
2019-02-18T10:01:43.157Z,10.81
2019-02-18T10:02:40.762Z,10.91
2019-02-18T10:03:40.711Z,11.23
2019-02-18T10:04:40.674Z,11.30
2019-02-18T10:05:40.682Z,11.38
2019-02-18T10:06:40.694Z,11.41
2019-02-18T10:07:40.627Z,11.42
2019-02-18T10:08:40.732Z,11.44
2019-02-18T10:09:40.546Z,11.49
2019-02-18T10:10:40.609Z,11.53
2019-02-18T10:11:40.477Z,11.57
2019-02-18T10:12:40.503Z,11.54
2019-02-18T10:13:40.445Z,11.74
2019-02-18T10:14:40.408Z,11.69
2019-02-18T10:15:40.398Z,11.64
2019-02-18T10:16:40.362Z,11.63
2019-02-18T10:17:40.310Z,11.57
2019-02-18T10:18:40.272Z,11.53
2019-02-18T10:19:42.774Z,11.45
2019-02-18T10:20:40.269Z,11.60
2019-02-18T10:21:40.208Z,11.63
2019-02-18T10:22:40.293Z,11.81
2019-02-18T10:23:40.167Z,11.93
2019-02-18T10:24:50.564Z,12.16
2019-02-18T10:25:40.053Z,12.34
2019-02-18T10:26:40.078Z,12.38
2019-02-18T10:27:40.003Z,12.48
2019-02-18T10:28:39.984Z,12.56
2019-02-18T10:29:39.939Z,12.59
2019-02-18T10:30:39.920Z,12.58
2019-02-18T10:31:39.903Z,12.61
2019-02-18T10:32:39.882Z,12.80
2019-02-18T10:33:39.818Z,12.81
2019-02-18T10:34:39.794Z,12.95
2019-02-18T10:35:39.785Z,13.04
2019-02-18T10:36:39.733Z,13.13
2019-02-18T10:37:39.708Z,13.12
2019-02-18T10:38:40.294Z,13.16
2019-02-18T10:39:39.642Z,13.14
2019-02-18T10:40:39.616Z,13.22
2019-02-18T10:41:39.595Z,13.17
2019-02-18T10:42:39.565Z,13.21
2019-02-18T10:43:39.528Z,13.29
2019-02-18T10:44:39.494Z,13.44
2019-02-18T10:45:39.489Z,13.59
2019-02-18T10:46:40.679Z,13.69
2019-02-18T10:47:39.460Z,13.65
2019-02-18T10:48:39.396Z,13.75
2019-02-18T10:49:39.360Z,13.66
2019-02-18T10:50:39.325Z,13.73
2019-02-18T10:51:39.297Z,13.75
2019-02-18T10:52:39.282Z,13.84
2019-02-18T10:53:39.243Z,13.83
2019-02-18T10:54:53.878Z,13.94
2019-02-18T10:55:39.197Z,14.02
2019-02-18T10:57:14.887Z,14.11
2019-02-18T10:57:39.138Z,14.21
2019-02-18T11:33:14.584Z,15.56
2019-02-18T11:33:49.933Z,15.56
2019-02-18T11:38:31.004Z,15.66
2019-02-18T11:38:51.786Z,15.70
2019-02-18T11:40:08.516Z,15.77
2019-02-18T11:40:51.735Z,15.84
2019-02-18T11:41:51.735Z,15.95
2019-02-18T11:42:51.678Z,15.91
2019-02-18T11:44:07.522Z,15.91
2019-02-18T11:44:51.639Z,15.85
2019-02-18T11:45:58.535Z,15.84
2019-02-18T11:46:51.566Z,15.92
2019-02-18T11:47:53.624Z,15.92
2019-02-18T11:48:51.501Z,16.13
2019-02-18T11:49:51.590Z,16.07
2019-02-18T11:50:51.489Z,16.06
2019-02-18T11:51:52.534Z,16.04
2019-02-18T11:52:51.404Z,16.13
2019-02-18T11:53:52.432Z,16.07
2019-02-18T11:54:51.333Z,16.08
2019-02-18T11:55:51.406Z,16.08
2019-02-18T11:56:51.277Z,16.18
2019-02-18T11:57:58.101Z,16.13
2019-02-18T11:58:51.226Z,16.33
2019-02-18T11:59:52.253Z,16.33
2019-02-18T12:00:51.167Z,16.42
2019-02-18T12:01:51.145Z,16.51
2019-02-18T12:02:51.110Z,16.54
2019-02-18T12:03:51.077Z,16.54
2019-02-18T12:04:51.050Z,16.59
2019-02-18T12:05:51.056Z,16.54
2019-02-18T12:06:50.995Z,16.48
2019-02-18T12:07:51.071Z,16.50
2019-02-18T12:08:50.946Z,16.52
2019-02-18T12:09:50.916Z,16.57
2019-02-18T12:10:51.013Z,16.65
2019-02-18T12:11:50.852Z,16.60
2019-02-18T12:12:50.894Z,16.60
2019-02-18T12:13:50.803Z,16.66
2019-02-18T12:14:50.828Z,16.78
2019-02-18T12:15:50.745Z,16.70
2019-02-18T12:16:50.820Z,16.65
2019-02-18T12:17:50.686Z,16.67
2019-02-18T12:18:50.736Z,16.59
2019-02-18T12:19:50.652Z,16.77
2019-02-18T12:20:50.603Z,16.62
2019-02-18T12:21:50.580Z,16.77
2019-02-18T12:22:50.571Z,16.66
2019-02-18T12:23:50.565Z,16.72
2019-02-18T12:24:50.515Z,16.84
2019-02-18T12:25:50.884Z,16.90
2019-02-18T12:26:50.752Z,16.95
2019-02-18T12:27:50.415Z,17.00
2019-02-18T12:28:50.423Z,16.98
2019-02-18T12:29:50.356Z,17.05
2019-02-18T12:30:50.328Z,17.05
2019-02-18T12:31:50.303Z,17.02
2019-02-18T12:32:50.283Z,17.06
2019-02-18T12:33:52.014Z,17.15
2019-02-18T12:34:50.221Z,17.14
2019-02-18T12:35:50.201Z,17.20
2019-02-18T12:36:50.164Z,17.09
2019-02-18T12:37:55.381Z,17.21
2019-02-18T12:38:50.098Z,17.17
2019-02-18T12:39:50.154Z,17.09
2019-02-18T12:40:50.048Z,16.99
2019-02-18T12:41:50.018Z,16.95
2019-02-18T12:42:50.010Z,16.99
2019-02-18T12:43:49.963Z,17.05
2019-02-18T12:44:49.945Z,16.98
2019-02-18T12:45:49.911Z,16.92
2019-02-18T12:46:49.890Z,16.91
2019-02-18T12:47:49.874Z,16.98
2019-02-18T12:48:49.831Z,16.88
2019-02-18T12:49:51.055Z,16.96
2019-02-18T12:50:49.788Z,16.99
2019-02-18T12:51:49.744Z,17.10
2019-02-18T12:52:49.717Z,17.22
2019-02-18T12:53:49.703Z,17.33
2019-02-18T12:54:49.754Z,17.40
2019-02-18T12:55:49.640Z,17.40
2019-02-18T12:56:49.608Z,17.36
2019-02-18T12:57:49.588Z,17.38
2019-02-18T12:58:54.571Z,17.33
2019-02-18T12:59:49.578Z,17.39
2019-02-18T13:00:49.499Z,17.36
2019-02-18T13:01:49.482Z,17.38
2019-02-18T13:02:49.449Z,17.35
2019-02-18T13:03:49.431Z,17.38
2019-02-18T13:04:49.404Z,17.47
2019-02-18T13:05:49.398Z,17.45
2019-02-18T13:06:49.343Z,17.43
2019-02-18T13:07:49.357Z,17.40
2019-02-18T13:08:49.294Z,17.40
2019-02-18T13:09:49.246Z,17.53
2019-02-18T13:10:49.228Z,17.63
2019-02-18T13:11:58.553Z,17.68
2019-02-18T13:12:49.162Z,17.73
2019-02-18T13:13:49.137Z,17.71
2019-02-18T13:14:49.119Z,17.68
2019-02-18T13:15:49.152Z,17.73
2019-02-18T13:16:49.076Z,17.76
2019-02-18T13:17:49.030Z,17.73
2019-02-18T13:18:49.015Z,17.73
2019-02-18T13:19:48.979Z,17.68
2019-02-18T13:20:48.947Z,17.70
2019-02-18T13:21:48.918Z,17.73
2019-02-18T13:22:48.906Z,17.73
2019-02-18T13:23:48.867Z,17.76
2019-02-18T13:24:48.851Z,17.71
2019-02-18T13:25:48.836Z,17.71
2019-02-18T13:26:48.789Z,17.76
2019-02-18T13:27:48.772Z,17.65
2019-02-18T13:28:48.741Z,17.70
2019-02-18T13:29:48.706Z,17.55
2019-02-18T13:30:48.684Z,17.51
2019-02-18T13:31:48.649Z,17.51
2019-02-18T13:32:48.637Z,17.60
2019-02-18T13:33:48.601Z,17.49
2019-02-18T13:34:48.590Z,17.60
2019-02-18T13:35:48.840Z,17.54
2019-02-18T13:36:48.519Z,17.71
2019-02-18T13:37:48.494Z,17.70
2019-02-18T13:38:48.514Z,17.80
2019-02-18T13:39:48.442Z,17.80
2019-02-18T13:40:48.416Z,17.79
2019-02-18T13:41:48.385Z,17.92
2019-02-18T13:42:48.356Z,17.92
2019-02-18T13:43:48.325Z,17.94
2019-02-18T13:44:48.294Z,17.89
2019-02-18T13:45:48.283Z,17.86
2019-02-18T13:46:48.243Z,17.86
2019-02-18T13:47:48.274Z,17.74
2019-02-18T13:48:48.195Z,17.71
2019-02-18T13:49:48.160Z,17.83
2019-02-18T13:50:48.134Z,17.70
2019-02-18T13:51:56.226Z,17.77
2019-02-18T13:52:50.008Z,17.73
2019-02-18T13:53:50.140Z,17.74